Ocean Shores, WA

9:42 PM PDT on September 03, 2015 (GMT -0700)
Bell Canal | | Change Station
CLOSE
Current Station
Personal Weather Station
Location: Ocean Shores, WA
Elevation: 16 ft
Nearby Weather Stations

Elev 16 ft 46.96 °N, 124.16 °W | Updated 3 minutes ago

Clear
Clear
49.8 °F
Feels Like 50 °F
N
0.0
Wind Variable Wind from South

Today
High -- | Low -- °F
--% Chance of Precip.
Yesterday
High -- | Low -- °F
Precip. -- in
6:38 AM 7:52 PM
Waning Gibbous, 63% visible
Pressure 30.01 in
Visibility 9.0 miles
Clouds Clear
Windchill 50 °F
Dew Point 45 °F
Humidity 83%
Rainfall 0.95 in
Snow Depth Not available.
UV 0 out of 12
Pollen 1.70 out of 12
Air Quality Not available.
Flu Activity Not available.
METAR KHQM 040353Z AUTO 24005KT 9SM CLR 14/10 A3000 RMK AO2 SLP161 T01440100
Pressure 30.01 in
Visibility 9.0 miles
Clouds Clear
Windchill 50 °F
Dew Point 45 °F
Humidity 83%
Rainfall 0.95 in
Snow Depth Not available.
UV 0 out of 12
Pollen 1.70 out of 12
Air Quality Not available.
Flu Activity Not available.
METAR KHQM 040353Z AUTO 24005KT 9SM CLR 14/10 A3000 RMK AO2 SLP161 T01440100

10-Day Weather Forecast

×

Almanac

Astronomy

Sep. 03, 2015 Rise Set
Actual Time
Civil Twilight
Nautical Twilight
Astronomical Twilight
Moon
Length of Visible Light
Length of Day
Tomorrow will be .
, % of the Moon is Illuminated

Today's Extremes

State Highs State Lows

Community

WunderPhotos

Upload Photos

1,852,129 photos uploaded!

WunderBlogs® & News

Nearby

Air Quality

  Air Quality AQ Index Pollutant
Not available.

Snow Depth

Station Depth Elevation

Earthquake Activity

City Distance Mag. Time & Date
Minimum magnitude displayed is 2.5.

Coastal Water Temperatures

Place Temperature

Stations

Nearby Weather Stations

Station Location Temp. Windchill Dew Point Humidity Wind Precip. Elev Updated Type